Stations météo

réclame
Mon MeteoGroup
Friedrichshafen, Allemagne (10935): Température de l'air & dewpoint: 14.11.2017 01:00:00 - 20.11.2017 01:00:00 (CET)Friedrichshafen, Allemagne (10935): Vitesse du vent: 14.11.2017 01:00:00 - 20.11.2017 01:00:00 (CET)Friedrichshafen, Allemagne (10935): Direction du vent: 14.11.2017 01:00:00 - 20.11.2017 01:00:00 (CET)Friedrichshafen, Allemagne (10935): visibility: 14.11.2017 01:00:00 - 20.11.2017 01:00:00 (CET)
Date & Time tt [°C] td [°C] ff [km/h] ff [knt] dd vv [km]
20.11.2017 01:00:00 0,0 -1,0 2 1 - 5
20.11.2017 00:00:00 0,0 -1,0 2 1 - 10
19.11.2017 23:00:00 0,0 -1,0 4 2 - 10
19.11.2017 22:00:00 1,0 0,0 2 1 - 10
19.11.2017 21:00:00 0,0 0,0 0 0 N 10
19.11.2017 20:00:00 1,0 -1,0 5 3 - 10
19.11.2017 19:00:00 0,0 -1,0 4 2 - 10
19.11.2017 18:00:00 1,0 0,0 2 1 - 10
19.11.2017 17:00:00 3,0 1,0 2 1 - 10
19.11.2017 16:00:00 5,0 0,0 5 3 - 10
19.11.2017 15:00:00 5,0 0,0 9 5 W 10
19.11.2017 14:00:00 5,0 0,0 9 5 W 10
19.11.2017 13:00:00 4,0 2,0 9 5 W 10
19.11.2017 12:00:00 4,0 2,0 15 8 W 8
19.11.2017 11:00:00 4,0 2,0 15 8 W 10
19.11.2017 10:00:00 3,0 2,0 13 7 W 8
19.11.2017 09:00:00 3,0 1,0 8 4 W 8
19.11.2017 08:00:00 2,0 1,0 4 2 - 8
19.11.2017 07:00:00 2,0 1,0 24 13 SW 8
19.11.2017 06:00:00 1,0 0,0 13 7 SW 2,5
19.11.2017 05:00:00 1,0 0,0 13 7 SW 2,9
19.11.2017 04:00:00 1,0 1,0 8 4 SSW 3,2
19.11.2017 03:00:00 0,0 0,0 4 2 SW 1,3
19.11.2017 02:00:00 0,0 0,0 11 6 WSW 2,1
19.11.2017 01:00:00 4,0 -1,0 18 10 WSW 10
19.11.2017 00:00:00 4,0 -1,0 22 12 WSW 10
18.11.2017 23:00:00 4,0 0,0 15 8 WSW 10
18.11.2017 22:00:00 4,0 -1,0 15 8 W 10
18.11.2017 21:00:00 4,0 -1,0 9 5 W 10
18.11.2017 20:00:00 4,0 0,0 9 5 W 10
18.11.2017 19:00:00 4,0 0,0 18 10 WSW 10
18.11.2017 18:00:00 5,0 0,0 18 10 W 10
18.11.2017 17:00:00 5,0 1,0 15 8 W 10
18.11.2017 16:00:00 5,0 2,0 21 11 WSW 10
18.11.2017 15:00:00 5,0 2,0 21 11 SW 10
18.11.2017 14:00:00 5,0 2,0 16 9 WSW 10
18.11.2017 13:00:00 5,0 3,0 9 5 W 8
18.11.2017 12:00:00 4,0 3,0 4 2 ESE 4,5
18.11.2017 11:00:00 4,0 3,0 0 0 N 3,2
18.11.2017 10:00:00 4,0 3,0 0 0 N 2,6
18.11.2017 09:00:00 3,0 3,0 2 1 - 2,4
18.11.2017 08:00:00 3,0 2,0 4 2 - 3,4
18.11.2017 07:00:00 3,0 3,0 4 2 - 2,9
18.11.2017 06:00:00 3,0 3,0 4 2 N 2,5
18.11.2017 05:00:00 3,0 3,0 2 1 - 2,0
18.11.2017 04:00:00 4,0 3,0 4 2 N 4,3
18.11.2017 03:00:00 4,0 2,0 5 3 NNE 5
18.11.2017 02:00:00 4,0 2,0 5 3 NNW 6
18.11.2017 01:00:00 4,0 2,0 4 2 ENE 6
18.11.2017 00:00:00 4,0 3,0 4 2 - 5
17.11.2017 23:00:00 4,0 3,0 4 2 NNE 5
17.11.2017 22:00:00 4,0 3,0 8 4 N 5
17.11.2017 21:00:00 4,0 3,0 9 5 NNE 5
17.11.2017 20:00:00 4,0 3,0 9 5 N 5
17.11.2017 19:00:00 4,0 2,0 5 3 N 6
17.11.2017 18:00:00 4,0 2,0 4 2 - 6
17.11.2017 17:00:00 4,0 2,0 5 3 NNW 6
17.11.2017 16:00:00 5,0 2,0 4 2 NNE 7
17.11.2017 15:00:00 4,0 1,0 5 3 NE 7
17.11.2017 14:00:00 4,0 1,0 5 3 - 7
17.11.2017 13:00:00 4,0 1,0 2 1 - 7
17.11.2017 12:00:00 3,0 1,0 5 3 NE 7
17.11.2017 11:00:00 3,0 0,0 5 3 - 7
17.11.2017 10:00:00 2,0 0,0 4 2 - 6
17.11.2017 09:00:00 1,0 -1,0 5 3 N 5
17.11.2017 08:00:00 1,0 -1,0 5 3 - 6
17.11.2017 07:00:00 1,0 -1,0 8 4 NNE 5
17.11.2017 06:00:00 1,0 -1,0 5 3 NNE 5
17.11.2017 05:00:00 1,0 -1,0 4 2 N 5
17.11.2017 04:00:00 1,0 -1,0 5 3 - 6
17.11.2017 03:00:00 1,0 -1,0 0 0 N 6
17.11.2017 02:00:00 1,0 -1,0 5 3 N 6
17.11.2017 01:00:00 1,0 -1,0 4 2 - 6
17.11.2017 00:00:00 1,0 0,0 4 2 NNW 7
16.11.2017 23:00:00 1,0 -1,0 4 2 - 8
16.11.2017 22:00:00 1,0 -1,0 5 3 N 8
16.11.2017 21:00:00 1,0 -1,0 4 2 - 8
16.11.2017 20:00:00 1,0 -1,0 5 3 ENE 8
16.11.2017 19:00:00 1,0 -1,0 11 6 NE 8
16.11.2017 18:00:00 1,0 -1,0 5 3 - 8
16.11.2017 17:00:00 2,0 -1,0 5 3 - 10
16.11.2017 16:00:00 2,0 -1,0 8 4 WNW 10
16.11.2017 15:00:00 2,0 -1,0 9 5 W 10
16.11.2017 14:00:00 2,0 -1,0 11 6 NW 10
16.11.2017 13:00:00 2,0 -1,0 8 4 WNW 10
16.11.2017 12:00:00 2,0 -1,0 5 3 - 10
16.11.2017 11:00:00 2,0 -2,0 8 4 N 10
16.11.2017 10:00:00 1,0 -1,0 8 4 NNW 10
16.11.2017 09:00:00 1,0 -1,0 8 4 NNW 10
16.11.2017 08:00:00 1,0 -2,0 5 3 N 10
16.11.2017 07:00:00 1,0 -2,0 5 3 NNW 10
16.11.2017 06:00:00 1,0 -2,0 8 4 NNW 10
16.11.2017 05:00:00 1,0 -2,0 11 6 N 10
16.11.2017 04:00:00 1,0 -2,0 13 7 N 9
16.11.2017 03:00:00 1,0 -2,0 15 8 N 10
16.11.2017 02:00:00 1,0 -2,0 11 6 N 10
16.11.2017 01:00:00 1,0 -2,0 13 7 N 10
16.11.2017 00:00:00 1,0 -2,0 13 7 N 10
15.11.2017 23:00:00 1,0 -1,0 15 8 N 10
15.11.2017 22:00:00 1,0 -1,0 16 9 N 10
15.11.2017 21:00:00 1,0 -1,0 11 6 NNW 10
15.11.2017 20:00:00 1,0 -1,0 13 7 N 10
15.11.2017 19:00:00 1,0 -1,0 15 8 N 10
15.11.2017 18:00:00 1,0 -1,0 15 8 N 10
15.11.2017 17:00:00 2,0 -1,0 11 6 N 10
15.11.2017 16:00:00 4,0 0,0 16 9 N 10
15.11.2017 15:00:00 5,0 0,0 18 10 N 10
15.11.2017 14:00:00 5,0 -1,0 11 6 NNE 10
15.11.2017 13:00:00 4,0 -1,0 11 6 N 10
15.11.2017 12:00:00 3,0 -1,0 15 8 NE 10
15.11.2017 11:00:00 2,0 -2,0 16 9 NE 10
15.11.2017 10:00:00 1,0 -2,0 16 9 NE 10
15.11.2017 09:00:00 0,0 -2,0 9 5 NE 7
15.11.2017 08:00:00 -2,0 -3,0 9 5 NE 7
15.11.2017 07:00:00 -2,0 -2,0 5 3 NE 8
15.11.2017 06:00:00 -2,0 -2,0 5 3 - 5
15.11.2017 05:00:00 -1,0 -2,0 9 5 NE 6
15.11.2017 04:00:00 -1,0 -1,0 8 4 N 5
15.11.2017 03:00:00 -1,0 -2,0 8 4 N 4,7
15.11.2017 02:00:00 -1,0 -1,0 9 5 N 3,5
15.11.2017 01:00:00 -1,0 -2,0 8 4 NNE 4,0
15.11.2017 00:00:00 -1,0 -2,0 8 4 NE 4,1
14.11.2017 23:00:00 -1,0 -1,0 8 4 NNE 5
14.11.2017 22:00:00 0,0 -1,0 9 5 NE 6
14.11.2017 21:00:00 0,0 -1,0 4 2 - 8
14.11.2017 20:00:00 0,0 -1,0 4 2 N 10
14.11.2017 19:00:00 0,0 -1,0 5 3 E 10
14.11.2017 18:00:00 2,0 0,0 5 3 NE 10
14.11.2017 17:00:00 3,0 -1,0 5 3 NE 10
14.11.2017 16:00:00 5,0 -1,0 9 5 N 10
14.11.2017 15:00:00 5,0 1,0 11 6 NNE 10
14.11.2017 14:00:00 5,0 0,0 9 5 NE 10
14.11.2017 13:00:00 4,0 1,0 8 4 NNE 10
14.11.2017 12:00:00 4,0 1,0 5 3 ENE 10
14.11.2017 11:00:00 3,0 1,0 9 5 ENE 10
14.11.2017 10:00:00 1,0 0,0 11 6 NNE 10
14.11.2017 09:00:00 -1,0 -1,0 8 4 NNE 8
14.11.2017 08:00:00 -3,0 -3,0 8 4 NE 10
14.11.2017 07:00:00 -2,0 -2,0 8 4 NE 10
14.11.2017 06:00:00 -1,0 -2,0 5 3 N 10
14.11.2017 05:00:00 -2,0 -2,0 8 4 - 7
14.11.2017 04:00:00 -1,0 -1,0 8 4 ENE 7
14.11.2017 03:00:00 0,0 -1,0 8 4 NE 8
14.11.2017 02:00:00 -1,0 -1,0 2 1 NNE 7
14.11.2017 01:00:00 -1,0 -2,0 5 3 NE 6

tt = Température de l'air
td = dewpoint
ff = Vitesse du vent
dd = Direction du vent
vv = visibility

stations d'obs. à proximité